Time;durP1;ratioP1;P1;durP2;ratioP2;P2;SDS_P1;SDS_P2;PMS_P1;PMS_P2;Temp;Humidity;BMP_temperature;BMP_pressure;BME280_temperature;BME280_humidity;BME280_pressure;Samples;Min_cycle;Max_cycle;Signal;HPM_P1;HPM_P2
2023/04/10 00:00:30;;;;;;;8.23;5.10;;;6.90;99.90;;;;;;5006087;28;20567;-79
2023/04/10 00:03:00;;;;;;;8.07;4.00;;;6.90;99.90;;;;;;5013422;28;20050;-79
2023/04/10 00:05:27;;;;;;;;;;;6.90;99.90;;;;;;5006491;28;20046;-79
2023/04/10 00:07:54;;;;;;;7.05;4.65;;;6.90;99.90;;;;;;5006934;28;19961;-80
2023/04/10 00:10:21;;;;;;;7.07;4.68;;;6.90;99.90;;;;;;4999677;28;20057;-79
2023/04/10 00:12:50;;;;;;;8.35;4.65;;;6.90;99.90;;;;;;5006044;28;20136;-80
2023/04/10 00:15:16;;;;;;;6.88;4.75;;;6.80;99.90;;;;;;5001884;28;20096;-80
2023/04/10 00:17:43;;;;;;;5.65;4.85;;;6.80;99.90;;;;;;4999190;28;20145;-79
2023/04/10 00:20:10;;;;;;;7.03;4.75;;;6.80;99.90;;;;;;5005227;28;20051;-79
2023/04/10 00:22:37;;;;;;;6.22;4.55;;;6.70;99.90;;;;;;5002120;28;20051;-79
2023/04/10 00:25:05;;;;;;;6.43;4.57;;;6.70;99.90;;;;;;5000245;28;20050;-80
2023/04/10 00:27:32;;;;;;;6.22;4.57;;;6.70;99.90;;;;;;5006831;28;20046;-80
2023/04/10 00:29:59;;;;;;;5.47;4.63;;;6.60;99.90;;;;;;5008979;28;20141;-81
2023/04/10 00:32:25;;;;;;;6.90;4.35;;;6.70;99.90;;;;;;5005433;28;20051;-80
2023/04/10 00:34:52;;;;;;;5.95;4.78;;;6.60;99.90;;;;;;5004428;28;20046;-79
2023/04/10 00:37:19;;;;;;;5.28;4.32;;;6.60;99.90;;;;;;5004933;28;20082;-80
2023/04/10 00:39:46;;;;;;;5.65;4.35;;;6.60;99.90;;;;;;4999406;28;20592;-81
2023/04/10 00:42:12;;;;;;;6.80;4.68;;;6.60;99.90;;;;;;5001496;28;20073;-80
2023/04/10 00:44:40;;;;;;;7.32;5.38;;;6.60;99.90;;;;;;5005140;28;20159;-79
2023/04/10 00:47:07;;;;;;;6.35;4.82;;;6.60;99.90;;;;;;4996136;28;20042;-79
2023/04/10 00:49:34;;;;;;;5.47;4.55;;;6.50;99.90;;;;;;5007278;28;20130;-79
2023/04/10 00:52:01;;;;;;;5.05;4.40;;;6.50;99.90;;;;;;5007942;28;20045;-79
2023/04/10 00:54:28;;;;;;;6.53;4.43;;;6.50;99.90;;;;;;5005835;28;20050;-79
2023/04/10 00:56:57;;;;;;;5.68;4.43;;;6.40;99.90;;;;;;5000467;28;20148;-79
2023/04/10 00:59:24;;;;;;;6.20;3.97;;;6.40;99.90;;;;;;5004685;28;20123;-79
2023/04/10 01:01:50;;;;;;;4.75;3.90;;;6.40;99.90;;;;;;5000071;28;20157;-80
2023/04/10 01:04:18;;;;;;;5.60;4.22;;;6.30;99.90;;;;;;4997632;28;20470;-79
2023/04/10 01:06:52;;;;;;;5.63;3.95;;;6.30;99.90;;;;;;5004000;28;20058;-79
2023/04/10 01:09:27;;;;;;;6.45;4.50;;;6.30;99.90;;;;;;5000210;28;20042;-80
2023/04/10 01:12:07;;;;;;;5.20;4.10;;;6.30;99.90;;;;;;5003900;28;20056;-80
2023/04/10 01:15:07;;;;;;;4.47;3.97;;;6.30;99.90;;;;;;5004934;28;20081;-80
2023/04/10 01:18:03;;;;;;;6.43;3.40;;;6.30;99.90;;;;;;5004421;28;20576;-79
2023/04/10 01:20:33;;;;;;;4.82;3.75;;;6.30;99.90;;;;;;5002969;28;20049;-79
2023/04/10 01:23:21;;;;;;;4.63;3.58;;;6.20;99.90;;;;;;5006257;28;20414;-78
2023/04/10 01:25:58;;;;;;;5.22;4.50;;;6.20;99.90;;;;;;4998644;28;20046;-79
2023/04/10 01:28:49;;;;;;;4.70;3.67;;;6.20;99.90;;;;;;5000468;28;20217;-79
2023/04/10 01:31:35;;;;;;;6.25;4.22;;;6.20;99.90;;;;;;5001651;28;20050;-79
2023/04/10 01:34:07;;;;;;;4.88;3.60;;;6.20;99.90;;;;;;4998267;28;20464;-79
2023/04/10 01:36:44;;;;;;;5.95;4.18;;;6.10;99.90;;;;;;5003331;28;20502;-79
2023/04/10 01:39:11;;;;;;;4.28;3.45;;;6.10;99.90;;;;;;5000419;28;20132;-79
2023/04/10 01:41:42;;;;;;;4.47;3.55;;;6.10;99.90;;;;;;5004407;28;20133;-79
2023/04/10 01:44:13;;;;;;;5.40;4.28;;;6.10;99.90;;;;;;5004090;28;20058;-79
2023/04/10 01:46:42;;;;;;;4.10;3.67;;;6.10;99.90;;;;;;5006725;28;20046;-79
2023/04/10 01:49:09;;;;;;;5.38;3.33;;;6.10;99.90;;;;;;4998502;28;20058;-79
2023/04/10 01:51:37;;;;;;;5.00;3.83;;;6.10;99.90;;;;;;5008774;28;20050;-79
2023/04/10 01:54:05;;;;;;;4.25;3.25;;;6.00;99.90;;;;;;5008493;28;20554;-78
2023/04/10 01:56:33;;;;;;;5.43;4.13;;;6.10;99.90;;;;;;4995970;28;20046;-79
2023/04/10 01:59:02;;;;;;;5.28;3.55;;;6.10;99.90;;;;;;5009936;28;20108;-79
2023/04/10 02:01:29;;;;;;;5.53;3.88;;;6.00;99.90;;;;;;5002814;28;20086;-79
2023/04/10 02:03:57;;;;;;;3.58;3.10;;;6.10;99.90;;;;;;5004410;28;20046;-79
2023/04/10 02:06:43;;;;;;;5.00;3.60;;;6.10;99.90;;;;;;5009762;28;20058;-82
2023/04/10 02:09:22;;;;;;;3.92;3.25;;;6.00;99.90;;;;;;5030979;28;20060;-82
2023/04/10 02:12:06;;;;;;;3.90;3.50;;;6.00;99.90;;;;;;5025946;28;20050;-78
2023/04/10 02:14:37;;;;;;;4.93;3.60;;;6.00;99.90;;;;;;4997320;28;20122;-79
2023/04/10 02:17:05;;;;;;;5.35;3.30;;;6.00;99.90;;;;;;5006615;28;20133;-78
2023/04/10 02:19:33;;;;;;;4.63;3.33;;;6.00;99.90;;;;;;5008433;28;20133;-79
2023/04/10 02:22:00;;;;;;;5.07;3.40;;;6.00;99.90;;;;;;5002979;28;20047;-79
2023/04/10 02:24:27;;;;;;;4.40;3.65;;;6.00;99.90;;;;;;4996892;28;20569;-79
2023/04/10 02:26:55;;;;;;;3.83;3.20;;;6.00;99.90;;;;;;5002503;28;20053;-79
2023/04/10 02:29:22;;;;;;;5.07;3.35;;;6.00;99.90;;;;;;5001757;28;20469;-79
2023/04/10 02:31:48;;;;;;;5.10;2.97;;;6.00;99.90;;;;;;5011645;28;20042;-79
2023/04/10 02:34:15;;;;;;;4.38;3.60;;;6.00;99.90;;;;;;5002963;28;20129;-79
2023/04/10 02:36:42;;;;;;;4.15;3.58;;;6.00;99.90;;;;;;5006899;28;20107;-79
2023/04/10 02:39:08;;;;;;;4.35;3.78;;;6.00;99.90;;;;;;5007497;28;20141;-79
2023/04/10 02:41:35;;;;;;;4.03;3.20;;;6.00;99.90;;;;;;5000044;28;20058;-79
2023/04/10 02:44:02;;;;;;;5.22;4.00;;;5.90;99.90;;;;;;5005393;28;20073;-80
2023/04/10 02:46:29;;;;;;;3.53;3.20;;;5.90;99.90;;;;;;5004949;28;20512;-79
2023/04/10 02:48:55;;;;;;;5.10;4.10;;;5.90;99.90;;;;;;4999020;28;20115;-79
2023/04/10 02:51:22;;;;;;;4.47;3.38;;;5.90;99.90;;;;;;5007142;28;20105;-80
2023/04/10 02:53:49;;;;;;;3.92;3.38;;;5.90;99.90;;;;;;5023845;28;20050;-80
2023/04/10 02:56:17;;;;;;;5.60;3.80;;;5.90;99.90;;;;;;5008463;28;20050;-79
2023/04/10 02:58:46;;;;;;;4.40;3.80;;;5.90;99.90;;;;;;5006419;28;20664;-79
2023/04/10 03:01:13;;;;;;;5.53;3.90;;;5.80;99.90;;;;;;5007829;28;20100;-79
2023/04/10 03:03:40;;;;;;;6.72;4.00;;;5.80;99.90;;;;;;5002504;28;20045;-80
2023/04/10 03:06:08;;;;;;;6.05;4.45;;;5.80;99.90;;;;;;5003401;28;20061;-79
2023/04/10 03:08:35;;;;;;;5.30;3.55;;;5.80;99.90;;;;;;5006894;28;20141;-81
2023/04/10 03:11:02;;;;;;;5.00;4.10;;;5.80;99.90;;;;;;4997627;28;20042;-80
2023/04/10 03:13:28;;;;;;;6.25;4.20;;;5.80;99.90;;;;;;5004538;28;20046;-79
2023/04/10 03:15:55;;;;;;;4.88;3.58;;;5.80;99.90;;;;;;5005365;28;20058;-80
2023/04/10 03:18:22;;;;;;;5.10;3.83;;;5.80;99.90;;;;;;5010494;28;20050;-80
2023/04/10 03:20:49;;;;;;;4.90;4.00;;;5.80;99.90;;;;;;5003148;28;20055;-79
2023/04/10 03:23:16;;;;;;;5.18;4.07;;;5.80;99.90;;;;;;5005249;28;20104;-79
2023/04/10 03:25:43;;;;;;;4.93;3.80;;;5.80;99.90;;;;;;5005424;28;20137;-79
2023/04/10 03:28:09;;;;;;;4.93;3.90;;;5.80;99.90;;;;;;5001941;28;20045;-79
2023/04/10 03:30:36;;;;;;;4.93;3.63;;;5.80;99.90;;;;;;5005497;28;20047;-79
2023/04/10 03:33:03;;;;;;;7.57;4.47;;;5.70;99.90;;;;;;5018909;28;20051;-79
2023/04/10 03:35:30;;;;;;;5.13;3.67;;;5.70;99.90;;;;;;5004716;28;20050;-79
2023/04/10 03:37:57;;;;;;;4.93;3.80;;;5.80;99.90;;;;;;5007641;28;20049;-80
2023/04/10 03:40:23;;;;;;;7.43;3.78;;;5.70;99.90;;;;;;5000022;28;20133;-79
2023/04/10 03:42:50;;;;;;;5.22;4.43;;;5.70;99.90;;;;;;5002261;28;20121;-79
2023/04/10 03:45:17;;;;;;;4.95;4.03;;;5.70;99.90;;;;;;5008683;28;20506;-79
2023/04/10 03:47:43;;;;;;;4.43;3.70;;;5.70;99.90;;;;;;5010170;28;20046;-79
2023/04/10 03:50:10;;;;;;;5.10;4.00;;;5.70;99.90;;;;;;5004188;28;20042;-79
2023/04/10 03:52:37;;;;;;;5.78;4.03;;;5.70;99.90;;;;;;5004505;28;20161;-81
2023/04/10 03:55:04;;;;;;;5.00;3.55;;;5.60;99.90;;;;;;5001655;28;20133;-79
2023/04/10 03:57:31;;;;;;;4.63;3.55;;;5.60;99.90;;;;;;4999637;28;20047;-79
2023/04/10 03:59:58;;;;;;;5.78;3.40;;;5.60;99.90;;;;;;5004057;28;20465;-80
2023/04/10 04:02:24;;;;;;;4.47;3.25;;;5.60;99.90;;;;;;5009300;28;20082;-79
2023/04/10 04:04:51;;;;;;;5.47;3.55;;;5.60;99.90;;;;;;4998884;28;20105;-80
2023/04/10 04:07:18;;;;;;;5.13;3.63;;;5.60;99.90;;;;;;5006049;28;20046;-79
2023/04/10 04:09:45;;;;;;;5.28;3.30;;;5.60;99.90;;;;;;5011018;28;20049;-79
2023/04/10 04:12:11;;;;;;;5.30;4.05;;;5.50;99.90;;;;;;5008822;28;20530;-80
2023/04/10 04:14:38;;;;;;;5.22;4.18;;;5.50;99.90;;;;;;5003494;28;20386;-79
2023/04/10 04:17:05;;;;;;;4.45;3.50;;;5.50;99.90;;;;;;5004833;28;20046;-79
2023/04/10 04:19:32;;;;;;;4.40;3.17;;;5.50;99.90;;;;;;5002482;28;20105;-80
2023/04/10 04:21:59;;;;;;;6.13;3.88;;;5.50;99.90;;;;;;5005127;28;20111;-79
2023/04/10 04:24:26;;;;;;;5.05;3.90;;;5.50;99.90;;;;;;5007185;28;20050;-80
2023/04/10 04:26:52;;;;;;;3.95;3.40;;;5.50;99.90;;;;;;5001540;28;20042;-79
2023/04/10 04:29:19;;;;;;;6.45;3.92;;;5.50;99.90;;;;;;5001732;28;20049;-79
2023/04/10 04:31:46;;;;;;;4.32;3.53;;;5.40;99.90;;;;;;5004562;28;20133;-79
2023/04/10 04:34:13;;;;;;;5.18;3.90;;;5.40;99.90;;;;;;5000289;28;20045;-80
2023/04/10 04:36:39;;;;;;;4.28;2.97;;;5.40;99.90;;;;;;5004506;28;20473;-79
2023/04/10 04:39:06;;;;;;;4.07;3.53;;;5.40;99.90;;;;;;5007941;28;20549;-79
2023/04/10 04:41:33;;;;;;;7.45;5.07;;;5.40;99.90;;;;;;5004248;28;20129;-80
2023/04/10 04:44:01;;;;;;;5.45;3.85;;;5.40;99.90;;;;;;5002762;28;20046;-79
2023/04/10 04:46:27;;;;;;;4.43;3.55;;;5.40;99.90;;;;;;5004578;28;20133;-79
2023/04/10 04:48:54;;;;;;;5.05;3.63;;;5.30;99.90;;;;;;5004078;28;20134;-79
2023/04/10 04:51:21;;;;;;;6.65;3.50;;;5.30;99.90;;;;;;5004012;28;20069;-80
2023/04/10 04:53:48;;;;;;;3.35;2.85;;;5.30;99.90;;;;;;5006571;28;20042;-79
2023/04/10 04:56:15;;;;;;;4.07;3.15;;;5.30;99.90;;;;;;4997921;28;20088;-80
2023/04/10 04:58:41;;;;;;;4.53;3.28;;;5.30;99.90;;;;;;5002674;28;20085;-80
2023/04/10 05:01:08;;;;;;;4.20;3.10;;;5.30;99.90;;;;;;5009156;28;20077;-79
2023/04/10 05:03:35;;;;;;;3.60;3.10;;;5.30;99.90;;;;;;5007641;28;20057;-80
2023/04/10 05:06:02;;;;;;;4.43;3.35;;;5.20;99.90;;;;;;5003188;28;20052;-79
2023/04/10 05:08:29;;;;;;;4.95;3.80;;;5.20;99.90;;;;;;5006170;28;20129;-80
2023/04/10 05:10:55;;;;;;;3.78;3.38;;;5.30;99.90;;;;;;5006233;28;20206;-79
2023/04/10 05:13:22;;;;;;;5.57;3.45;;;5.20;99.90;;;;;;5002205;28;20056;-79
2023/04/10 05:15:49;;;;;;;4.57;3.50;;;5.30;99.90;;;;;;5004816;28;20081;-79
2023/04/10 05:18:18;;;;;;;4.70;3.42;;;5.30;99.90;;;;;;5003150;28;20108;-79
2023/04/10 05:20:46;;;;;;;5.07;3.67;;;5.20;99.90;;;;;;5003903;28;20049;-80
2023/04/10 05:23:13;;;;;;;4.07;3.00;;;5.20;99.90;;;;;;5006456;28;20042;-80
2023/04/10 05:25:40;;;;;;;5.00;3.55;;;5.20;99.90;;;;;;5009166;28;20402;-79
2023/04/10 05:28:07;;;;;;;4.88;3.15;;;5.30;99.90;;;;;;5001709;28;20480;-79
2023/04/10 05:30:33;;;;;;;3.92;3.15;;;5.30;99.90;;;;;;5001974;28;20125;-79
2023/04/10 05:33:00;;;;;;;4.55;3.00;;;5.30;99.90;;;;;;5007345;28;20600;-79
2023/04/10 05:35:27;;;;;;;4.47;3.30;;;5.20;99.90;;;;;;5018086;28;20052;-79
2023/04/10 05:37:53;;;;;;;4.78;3.53;;;5.30;99.90;;;;;;5009148;28;20061;-79
2023/04/10 05:40:20;;;;;;;5.22;3.67;;;5.30;99.90;;;;;;5003658;28;20755;-79
2023/04/10 05:42:47;;;;;;;6.05;4.00;;;5.30;99.90;;;;;;4998541;28;20134;-79
2023/04/10 05:45:13;;;;;;;4.28;3.17;;;5.30;99.90;;;;;;4999154;28;20066;-79
2023/04/10 05:47:40;;;;;;;4.82;3.70;;;5.30;99.90;;;;;;5002983;28;20047;-79
2023/04/10 05:50:08;;;;;;;4.00;2.92;;;5.40;99.90;;;;;;5006511;28;20077;-80
2023/04/10 05:52:35;;;;;;;6.45;3.55;;;5.40;99.90;;;;;;5003684;28;20137;-79
2023/04/10 05:55:02;;;;;;;5.90;3.45;;;5.40;99.90;;;;;;5008858;28;20082;-80
2023/04/10 05:57:29;;;;;;;4.65;3.60;;;5.40;99.90;;;;;;5003881;28;20061;-79
2023/04/10 05:59:56;;;;;;;5.03;3.67;;;5.50;99.90;;;;;;5005931;28;20061;-79
2023/04/10 06:02:23;;;;;;;4.68;3.50;;;5.50;99.90;;;;;;5005366;28;20046;-79
2023/04/10 06:04:50;;;;;;;7.07;3.50;;;5.50;99.90;;;;;;5020025;28;20469;-80
2023/04/10 06:07:17;;;;;;;5.40;4.00;;;5.60;99.90;;;;;;5002134;28;20050;-78
2023/04/10 06:09:44;;;;;;;6.32;4.05;;;5.60;99.90;;;;;;5008078;28;20074;-79
2023/04/10 06:12:10;;;;;;;5.88;4.22;;;5.70;99.90;;;;;;5005819;28;20420;-80
2023/04/10 06:14:37;;;;;;;6.13;3.80;;;5.70;99.90;;;;;;5003394;28;20456;-78
2023/04/10 06:17:04;;;;;;;4.78;4.07;;;5.70;99.90;;;;;;5009944;28;20089;-79
2023/04/10 06:19:31;;;;;;;6.35;3.80;;;5.80;99.90;;;;;;5010537;28;20081;-79
2023/04/10 06:21:57;;;;;;;5.10;4.05;;;5.80;99.90;;;;;;5010108;28;20136;-79
2023/04/10 06:24:24;;;;;;;5.28;4.07;;;5.80;99.90;;;;;;5012284;28;20133;-80
2023/04/10 06:26:51;;;;;;;5.45;3.65;;;5.80;99.90;;;;;;5012772;28;20133;-80
2023/04/10 06:29:18;;;;;;;5.93;4.10;;;5.90;99.90;;;;;;5002935;28;20046;-80
2023/04/10 06:31:44;;;;;;;7.60;4.18;;;5.90;99.90;;;;;;5006976;28;20137;-80
2023/04/10 06:34:11;;;;;;;5.22;3.60;;;6.00;99.90;;;;;;5009236;28;20530;-79
2023/04/10 06:36:38;;;;;;;4.95;3.83;;;6.00;99.90;;;;;;4998788;28;20637;-80
2023/04/10 06:39:05;;;;;;;7.85;4.57;;;6.10;99.90;;;;;;5011189;28;20569;-80
2023/04/10 06:41:32;;;;;;;4.15;3.55;;;6.10;99.90;;;;;;5011313;28;20085;-79
2023/04/10 06:43:59;;;;;;;6.70;4.35;;;6.20;99.90;;;;;;5011053;28;20078;-81
2023/04/10 06:46:29;;;;;;;6.35;4.53;;;6.30;99.90;;;;;;5010440;28;20081;-81
2023/04/10 06:48:55;;;;;;;6.85;5.22;;;6.30;99.90;;;;;;5011191;28;20050;-80
2023/04/10 06:51:22;;;;;;;7.05;5.07;;;6.40;99.90;;;;;;5007278;28;20124;-81
2023/04/10 06:53:49;;;;;;;8.30;5.60;;;6.50;99.90;;;;;;5005588;28;20073;-81
2023/04/10 06:56:16;;;;;;;7.90;5.68;;;6.60;99.90;;;;;;5006854;28;20510;-81
2023/04/10 06:58:42;;;;;;;6.85;5.25;;;6.70;99.90;;;;;;5002390;28;20131;-80
2023/04/10 07:01:09;;;;;;;8.77;5.78;;;6.80;99.90;;;;;;5009754;28;20417;-79
2023/04/10 07:03:37;;;;;;;7.32;5.30;;;6.90;99.90;;;;;;5011745;28;20046;-80
2023/04/10 07:06:04;;;;;;;7.50;6.03;;;7.00;99.90;;;;;;5005850;28;20048;-81
2023/04/10 07:08:31;;;;;;;6.65;5.05;;;7.00;99.90;;;;;;5006300;28;20132;-80
2023/04/10 07:10:57;;;;;;;8.77;5.43;;;7.10;99.90;;;;;;5010686;28;20079;-80
2023/04/10 07:13:24;;;;;;;6.43;5.35;;;7.10;99.90;;;;;;5012554;28;20046;-81
2023/04/10 07:15:51;;;;;;;6.43;4.93;;;7.20;99.90;;;;;;5024717;28;20050;-82
2023/04/10 07:18:18;;;;;;;6.60;4.85;;;7.30;99.90;;;;;;5032351;28;20077;-81
2023/04/10 07:20:45;;;;;;;8.27;4.95;;;7.40;99.90;;;;;;5039991;28;20087;-81
2023/04/10 07:23:12;;;;;;;7.32;5.32;;;7.40;99.90;;;;;;5036786;28;20038;-82
2023/04/10 07:25:41;;;;;;;9.45;5.50;;;7.50;99.90;;;;;;5028835;28;20042;-80
2023/04/10 07:28:08;;;;;;;5.82;4.50;;;7.50;99.90;;;;;;5010355;28;20092;-80
2023/04/10 07:30:35;;;;;;;6.00;4.88;;;7.60;99.90;;;;;;5011964;28;20057;-80
2023/04/10 07:33:02;;;;;;;7.88;5.45;;;7.70;99.90;;;;;;5012868;28;20048;-81
2023/04/10 07:35:29;;;;;;;6.95;5.10;;;7.80;99.90;;;;;;5011956;28;20042;-80
2023/04/10 07:37:55;;;;;;;6.03;4.68;;;7.80;99.90;;;;;;5011409;28;20046;-81
2023/04/10 07:40:22;;;;;;;7.35;5.45;;;7.90;99.90;;;;;;5004117;28;20077;-81
2023/04/10 07:42:49;;;;;;;8.13;5.82;;;8.00;99.90;;;;;;5006822;28;20054;-80
2023/04/10 07:45:18;;;;;;;7.70;5.50;;;8.00;99.90;;;;;;5000380;28;20426;-81
2023/04/10 07:47:45;;;;;;;6.28;5.00;;;8.10;99.90;;;;;;5012717;28;20053;-81
2023/04/10 07:50:13;;;;;;;6.25;5.20;;;8.20;99.90;;;;;;5008513;28;20042;-81
2023/04/10 07:52:39;;;;;;;6.97;5.05;;;8.20;99.90;;;;;;5000054;28;20049;-82
2023/04/10 07:55:06;;;;;;;9.90;5.40;;;8.30;99.90;;;;;;5011418;28;20057;-81
2023/04/10 07:57:34;;;;;;;7.38;5.60;;;8.30;99.90;;;;;;5005407;28;20050;-80
2023/04/10 08:00:01;;;;;;;8.60;5.28;;;8.40;99.90;;;;;;5008043;28;20045;-80
2023/04/10 08:02:28;;;;;;;7.45;5.20;;;8.40;99.90;;;;;;5011403;28;20046;-81
2023/04/10 08:04:55;;;;;;;6.78;5.07;;;8.50;99.90;;;;;;5011055;28;20057;-81
2023/04/10 08:07:22;;;;;;;6.95;5.30;;;8.60;99.90;;;;;;5002302;28;20046;-80
2023/04/10 08:09:49;;;;;;;7.55;5.18;;;8.60;99.90;;;;;;5005546;28;20129;-81
2023/04/10 08:12:16;;;;;;;6.35;5.22;;;8.70;99.90;;;;;;5006303;28;20045;-81
2023/04/10 08:14:44;;;;;;;7.15;5.30;;;8.70;99.90;;;;;;5010293;28;20045;-82
2023/04/10 08:17:13;;;;;;;6.63;5.40;;;8.80;99.90;;;;;;5004606;28;20046;-79
2023/04/10 08:19:41;;;;;;;7.95;5.68;;;8.90;99.90;;;;;;5001619;28;20137;-80
2023/04/10 08:22:08;;;;;;;7.72;5.57;;;9.00;99.90;;;;;;5003433;28;20077;-81
2023/04/10 08:24:34;;;;;;;6.75;5.35;;;9.00;99.90;;;;;;5007719;28;20081;-81
2023/04/10 08:27:01;;;;;;;7.57;5.15;;;9.10;99.90;;;;;;5023201;28;20046;-79
2023/04/10 08:29:28;;;;;;;6.38;4.93;;;9.20;99.90;;;;;;5005318;28;20049;-81
2023/04/10 08:31:55;;;;;;;7.10;5.22;;;9.30;99.90;;;;;;5003525;28;20048;-80
2023/04/10 08:34:23;;;;;;;6.72;5.40;;;9.30;99.90;;;;;;5004753;28;20417;-81
2023/04/10 08:36:49;;;;;;;7.32;5.10;;;9.40;99.90;;;;;;5000680;28;20100;-82
2023/04/10 08:39:17;;;;;;;6.40;4.85;;;9.50;99.90;;;;;;5000335;28;20076;-81
2023/04/10 08:41:44;;;;;;;6.43;5.05;;;9.50;99.90;;;;;;5002066;28;20073;-81
2023/04/10 08:44:11;;;;;;;7.45;5.50;;;9.70;99.90;;;;;;5005919;28;20046;-82
2023/04/10 08:46:41;;;;;;;7.00;5.78;;;9.80;99.90;;;;;;5010817;28;20141;-81
2023/04/10 08:49:14;;;;;;;6.30;4.93;;;9.90;99.90;;;;;;5011174;28;20061;-81
2023/04/10 08:51:45;;;;;;;7.22;5.35;;;10.00;99.90;;;;;;5009091;28;20049;-81
2023/04/10 08:54:22;;;;;;;8.15;5.95;;;10.10;99.90;;;;;;5011429;28;20069;-82
2023/04/10 08:56:52;;;;;;;6.95;5.63;;;10.20;99.90;;;;;;5010310;28;20054;-81
2023/04/10 08:59:19;;;;;;;6.55;4.97;;;10.30;99.90;;;;;;5003187;28;20069;-82
2023/04/10 09:01:46;;;;;;;6.43;5.15;;;10.40;99.90;;;;;;5005346;28;20505;-81
2023/04/10 09:04:15;;;;;;;6.40;5.05;;;10.60;99.90;;;;;;5014099;28;20065;-82
2023/04/10 09:06:42;;;;;;;6.80;5.47;;;10.70;99.90;;;;;;5031775;23;20367;-77
2023/04/10 09:09:09;;;;;;;7.45;5.20;;;10.70;99.90;;;;;;4997555;28;20125;-77
2023/04/10 09:11:55;;;;;;;6.32;5.05;;;10.70;99.90;;;;;;4998151;28;20042;-77
2023/04/10 09:14:23;;;;;;;5.65;4.60;;;10.80;99.90;;;;;;4997974;28;20557;-78
2023/04/10 09:16:51;;;;;;;6.47;5.07;;;10.90;99.90;;;;;;5007465;28;20129;-78
2023/04/10 09:19:33;;;;;;;7.43;5.30;;;10.90;99.90;;;;;;5000365;28;20125;-76
2023/04/10 09:22:00;;;;;;;6.28;5.03;;;11.00;99.90;;;;;;4998642;28;20056;-75
2023/04/10 09:24:26;;;;;;;7.00;5.50;;;11.00;99.90;;;;;;5002376;28;20125;-76
2023/04/10 09:26:54;;;;;;;6.50;4.90;;;11.00;99.90;;;;;;4997905;28;20042;-77
2023/04/10 09:29:20;;;;;;;7.03;5.22;;;11.10;99.90;;;;;;5008148;28;20124;-75
2023/04/10 09:31:49;;;;;;;6.93;5.18;;;11.10;99.90;;;;;;4998342;28;20121;-77
2023/04/10 09:34:21;;;;;;;7.30;4.97;;;11.20;99.90;;;;;;4999395;28;20050;-77
2023/04/10 09:36:56;;;;;;;6.07;4.68;;;11.20;99.90;;;;;;4997759;28;20546;-77
2023/04/10 09:39:42;;;;;;;6.82;5.90;;;11.20;99.90;;;;;;4999330;28;20073;-76
2023/04/10 09:42:13;;;;;;;7.78;5.45;;;11.30;99.90;;;;;;5000587;28;20612;-77
2023/04/10 09:44:41;;;;;;;6.72;4.93;;;11.30;99.90;;;;;;4997872;28;20050;-77
2023/04/10 09:47:15;;;;;;;5.43;4.82;;;11.40;99.90;;;;;;4999348;28;20124;-76
2023/04/10 09:49:51;;;;;;;5.72;5.13;;;11.50;99.90;;;;;;4999196;28;20045;-76
2023/04/10 09:52:26;;;;;;;7.88;6.05;;;11.60;99.90;;;;;;4995481;28;20039;-77
2023/04/10 09:54:56;;;;;;;6.03;4.70;;;11.70;99.90;;;;;;4999533;28;20125;-78
2023/04/10 09:57:24;;;;;;;;;;;11.70;99.90;;;;;;4999064;28;20137;-77
2023/04/10 09:59:56;;;;;;;7.30;4.50;;;11.80;99.90;;;;;;4998260;28;19921;-76
2023/04/10 10:02:25;;;;;;;6.28;5.47;;;11.80;99.90;;;;;;4998550;28;20077;-77
2023/04/10 10:04:53;;;;;;;6.00;4.90;;;11.90;99.90;;;;;;4997256;28;20053;-76
2023/04/10 10:07:21;;;;;;;6.90;4.47;;;11.90;99.90;;;;;;4997777;28;20055;-76
2023/04/10 10:09:51;;;;;;;6.38;4.57;;;12.00;99.90;;;;;;5001903;28;20084;-76
2023/04/10 10:12:44;;;;;;;6.15;4.78;;;12.10;99.90;;;;;;4997105;28;20043;-78
2023/04/10 10:15:41;;;;;;;6.85;5.18;;;12.10;99.90;;;;;;4997848;28;20038;-77
2023/04/10 10:18:19;;;;;;;9.13;4.85;;;12.20;99.90;;;;;;5001521;28;20056;-76
2023/04/10 10:20:46;;;;;;;5.45;4.78;;;12.30;99.90;;;;;;5000550;28;20089;-76
2023/04/10 10:23:14;;;;;;;5.88;4.53;;;12.40;99.90;;;;;;4998103;28;20473;-77
2023/04/10 10:25:43;;;;;;;4.72;4.22;;;12.50;99.90;;;;;;4999665;28;20045;-76
2023/04/10 10:28:12;;;;;;;7.07;4.75;;;12.60;99.90;;;;;;4996221;28;20437;-77
2023/04/10 10:30:40;;;;;;;7.15;4.90;;;12.70;99.90;;;;;;4995004;28;20126;-77
2023/04/10 10:33:07;;;;;;;7.03;5.40;;;12.90;99.90;;;;;;5005217;28;20137;-78
2023/04/10 10:35:35;;;;;;;7.95;5.43;;;13.00;99.90;;;;;;5002393;28;20070;-77
2023/04/10 10:38:06;;;;;;;5.43;4.18;;;13.00;99.90;;;;;;5004377;28;20050;-76
2023/04/10 10:41:08;;;;;;;5.57;4.93;;;13.10;99.90;;;;;;4999308;28;20058;-75
2023/04/10 10:43:58;;;;;;;8.25;4.85;;;13.30;99.90;;;;;;5002422;28;20130;-77
2023/04/10 10:46:56;;;;;;;4.65;4.15;;;13.40;99.90;;;;;;4996225;28;20146;-76
2023/04/10 10:49:58;;;;;;;5.80;4.80;;;13.60;99.90;;;;;;4999820;28;20069;-77
2023/04/10 10:52:45;;;;;;;5.47;4.60;;;13.80;99.90;;;;;;5014562;28;20100;-76
2023/04/10 10:55:21;;;;;;;5.10;4.28;;;13.90;99.90;;;;;;5004408;28;20077;-76
2023/04/10 10:57:50;;;;;;;5.03;4.40;;;14.10;99.90;;;;;;5012697;28;20527;-77
2023/04/10 11:00:18;;;;;;;4.40;3.92;;;14.20;99.90;;;;;;5009826;28;20116;-76
2023/04/10 11:03:09;;;;;;;5.15;4.22;;;14.30;99.90;;;;;;5011641;28;20407;-76
2023/04/10 11:05:53;;;;;;;8.20;4.38;;;14.50;99.90;;;;;;5002353;28;20535;-76
2023/04/10 11:08:32;;;;;;;4.68;3.95;;;14.60;99.90;;;;;;5000940;28;20050;-76
2023/04/10 11:11:04;;;;;;;6.00;3.70;;;14.70;99.90;;;;;;5017211;28;20085;-76
2023/04/10 11:13:32;;;;;;;4.47;3.85;;;14.90;99.90;;;;;;5001891;28;20049;-75
2023/04/10 11:16:01;;;;;;;4.75;3.88;;;15.00;99.90;;;;;;5006086;28;20603;-78
2023/04/10 11:18:48;;;;;;;3.55;3.13;;;15.20;99.90;;;;;;5005167;28;20104;-75
2023/04/10 11:21:36;;;;;;;3.33;2.97;;;15.20;99.90;;;;;;5000845;28;20541;-76
2023/04/10 11:24:04;;;;;;;3.22;2.55;;;15.30;99.90;;;;;;5003860;28;20042;-76
2023/04/10 11:26:42;;;;;;;2.92;2.63;;;15.30;99.90;;;;;;5002009;28;20141;-75
2023/04/10 11:29:13;;;;;;;4.18;2.85;;;15.30;99.90;;;;;;5006886;28;20080;-74
2023/04/10 11:31:40;;;;;;;2.28;2.08;;;15.30;99.90;;;;;;5017861;28;20533;-77
2023/04/10 11:34:09;;;;;;;3.35;2.20;;;15.30;99.90;;;;;;5001085;28;20112;-73
2023/04/10 11:36:41;;;;;;;2.90;2.60;;;15.30;99.90;;;;;;5001916;28;20514;-75
2023/04/10 11:39:12;;;;;;;2.63;2.20;;;15.30;99.90;;;;;;5007050;28;20096;-75
2023/04/10 11:41:41;;;;;;;5.05;1.95;;;15.30;99.90;;;;;;5001518;28;20041;-76
2023/04/10 11:44:10;;;;;;;2.50;1.63;;;15.40;99.90;;;;;;4999983;28;20517;-76
2023/04/10 11:46:38;;;;;;;1.80;1.33;;;15.50;99.90;;;;;;4996167;28;20050;-76
2023/04/10 11:49:08;;;;;;;1.42;1.20;;;15.60;99.90;;;;;;5001154;28;20133;-75
2023/04/10 11:51:36;;;;;;;2.15;1.60;;;15.60;99.90;;;;;;5007026;28;20508;-77
2023/04/10 11:54:10;;;;;;;1.30;1.20;;;15.70;99.90;;;;;;5002111;28;20432;-75
2023/04/10 11:56:39;;;;;;;1.58;1.30;;;15.80;99.90;;;;;;4997585;28;20453;-76
2023/04/10 11:59:09;;;;;;;1.55;1.38;;;15.90;99.90;;;;;;5000786;28;20145;-75
2023/04/10 12:01:36;;;;;;;2.45;1.80;;;16.00;99.90;;;;;;4995871;28;20073;-75
2023/04/10 12:04:14;;;;;;;2.03;1.67;;;16.10;99.90;;;;;;4998265;28;20053;-75
2023/04/10 12:06:49;;;;;;;2.72;2.05;;;16.20;99.90;;;;;;5000369;28;20429;-75
2023/04/10 12:09:20;;;;;;;3.00;1.45;;;16.30;99.90;;;;;;5001378;28;20137;-76
2023/04/10 12:11:51;;;;;;;2.15;1.80;;;16.30;99.90;;;;;;5001954;28;20042;-76
2023/04/10 12:14:20;;;;;;;2.13;1.58;;;16.30;99.90;;;;;;5000359;28;20043;-76
2023/04/10 12:16:48;;;;;;;1.30;1.20;;;16.40;99.90;;;;;;5005748;28;20124;-77
2023/04/10 12:19:16;;;;;;;1.60;1.50;;;16.40;99.90;;;;;;5003425;28;20114;-76
2023/04/10 12:21:44;;;;;;;2.58;1.92;;;16.50;99.90;;;;;;5010224;28;20520;-76
2023/04/10 12:24:32;;;;;;;1.48;1.30;;;16.50;99.90;;;;;;5001906;28;20076;-77
2023/04/10 12:26:59;;;;;;;2.75;1.90;;;16.60;99.90;;;;;;5000885;28;20497;-78
2023/04/10 12:29:27;;;;;;;2.33;1.73;;;16.70;99.90;;;;;;5004011;28;20038;-77
2023/04/10 12:31:53;;;;;;;2.80;2.00;;;16.80;99.90;;;;;;5002323;28;20048;-75
2023/04/10 12:34:20;;;;;;;2.65;1.90;;;16.90;99.90;;;;;;5003065;28;20042;-77
2023/04/10 12:36:52;;;;;;;2.20;1.70;;;17.00;99.90;;;;;;5002865;28;20039;-77
2023/04/10 12:39:23;;;;;;;2.08;1.63;;;17.10;99.90;;;;;;5002305;28;20077;-76
2023/04/10 12:41:50;;;;;;;3.15;1.77;;;17.20;99.90;;;;;;5005460;28;20072;-76
2023/04/10 12:44:19;;;;;;;3.85;1.67;;;17.20;99.90;;;;;;5009045;28;20069;-77
2023/04/10 12:46:46;;;;;;;1.77;1.58;;;17.30;99.90;;;;;;5014259;28;20104;-76
2023/04/10 12:49:17;;;;;;;1.98;1.67;;;17.30;99.90;;;;;;5002236;28;20041;-76
2023/04/10 12:51:49;;;;;;;2.47;1.50;;;17.40;99.90;;;;;;5003522;28;20050;-76
2023/04/10 12:54:32;;;;;;;3.45;1.52;;;17.40;99.90;;;;;;4997549;28;20145;-75
2023/04/10 12:57:00;;;;;;;3.28;1.88;;;17.40;99.90;;;;;;5000148;28;20072;-76
2023/04/10 12:59:31;;;;;;;2.28;1.60;;;17.40;99.90;;;;;;4999128;28;20469;-76
2023/04/10 13:01:58;;;;;;;3.42;1.85;;;17.40;99.90;;;;;;4997666;28;20061;-76
2023/04/10 13:04:25;;;;;;;2.65;1.75;;;17.40;99.90;;;;;;5002230;28;20046;-76
2023/04/10 13:06:52;;;;;;;2.22;1.75;;;17.30;99.90;;;;;;4997780;28;20056;-76